Sedov — UELO — position and weather

sailwx.info

Track history (hours):
 
Tides and Currents Weather Stations Pressure Air Temp Water Temp Dewpoint Dewpoint Depression Visibility Wind Speed Wind Dir Waves Ship Positions

Sedov (Russia)

Last reported at 2014-Aug-21 15:33 UTC. Time now 2014-Aug-21 16:06 UTC.
Position N 54°11' E 012°06'.

Length 118 m; draft 6.5 m.

Type: Sailing vessel. MMSI: 273510000.

Date/timePositionNaut miles runAvg speedWind from/ knotsBaromVisibWave heightAir tempDewpointWater temp
2014-Aug-21 15:33N 54°11' E 012°06'0 0.0
2014-Aug-21 14:30N 54°11' E 012°06'0 0.0
2014-Aug-21 13:33N 54°11' E 012°06'0 0.0
2014-Aug-21 12:33N 54°11' E 012°06'0 0.0
2014-Aug-21 11:15N 54°11' E 012°06'0 0.0
2014-Aug-21 10:33N 54°11' E 012°06'0 0.0
2014-Aug-21 09:33N 54°11' E 012°06'0 0.0
2014-Aug-21 08:33N 54°11' E 012°06'5 4.8
2014-Aug-21 07:33N 54°15' E 012°04'7 7.2
2014-Aug-21 06:33N 54°21' E 012°12'6 6.0
2014-Aug-21 05:33N 54°25' E 012°18'6 6.2
2014-Aug-21 04:33N 54°30' E 012°24'6 6.2
2014-Aug-21 03:33N 54°36' E 012°31'6 6.3
2014-Aug-21 02:33N 54°39' E 012°40'6 6.3
2014-Aug-21 01:33N 54°41' E 012°50'7 6.6
2014-Aug-21 00:33N 54°42' E 013°01'6 6.3
2014-Aug-20 23:33N 54°43' E 013°12'6 6.0
2014-Aug-20 22:33N 54°44' E 013°22'6 5.8
2014-Aug-20 21:33N 54°44' E 013°32'6 6.2
2014-Aug-20 20:33N 54°43' E 013°43'6 6.5
2014-Aug-20 19:33N 54°42' E 013°54'7 6.8
2014-Aug-20 18:33N 54°40' E 014°05'6 6.1
2014-Aug-20 17:33N 54°39' E 014°16'6 5.4
2014-Aug-20 16:30N 54°38' E 014°26'123 3.3
2014-Aug-19 03:26N 55°06' E 017°54'3 3.2
2014-Aug-19 02:33N 55°06' E 017°59'3 2.9
2014-Aug-19 01:34N 55°06' E 018°04'4 4.2
2014-Aug-19 00:33N 55°06' E 018°11'5 4.8
2014-Aug-18 23:34N 55°06' E 018°20'6 5.6
2014-Aug-18 22:34N 55°03' E 018°28'7 6.9
2014-Aug-18 21:33N 54°59' E 018°39'8 8.2
2014-Aug-18 20:34N 54°55' E 018°51'8 8.4
2014-Aug-18 19:33N 54°48' E 018°57'10 9.6
2014-Aug-18 18:33N 54°38' E 018°56'10 9.5
2014-Aug-18 17:34N 54°32' E 018°44'5 5.1
2014-Aug-18 16:31N 54°29' E 018°36'1 1.2
2014-Aug-18 15:33N 54°30' E 018°35'2 1.9
2014-Aug-18 14:33N 54°31' E 018°33'0 0.0
2014-Aug-18 13:33N 54°31' E 018°33'0 0.0
2014-Aug-18 12:33N 54°31' E 018°33'0 0.0
2014-Aug-18 11:33N 54°31' E 018°33'0 0.0
2014-Aug-18 10:33N 54°31' E 018°33'0 0.0
2014-Aug-18 09:33N 54°31' E 018°33'0 0.0
2014-Aug-18 08:33N 54°31' E 018°33'0 0.0
2014-Aug-18 07:33N 54°31' E 018°33'0 0.0
2014-Aug-18 06:33N 54°31' E 018°33'0 0.0
2014-Aug-18 05:33N 54°31' E 018°33'0 0.0
2014-Aug-18 04:30N 54°31' E 018°33'0 0.0
2014-Aug-18 03:33N 54°31' E 018°33'0 0.0
2014-Aug-18 02:33N 54°31' E 018°33'0 0.0
2014-Aug-18 01:33N 54°31' E 018°33'0 0.0
2014-Aug-18 00:33N 54°31' E 018°33'0 0.0
2014-Aug-17 18:33N 54°31' E 018°33'0 0.0
2014-Aug-17 17:33N 54°31' E 018°33'0 0.0
2014-Aug-17 16:33N 54°31' E 018°33'0 0.0
2014-Aug-17 15:33N 54°31' E 018°33'0 0.0
2014-Aug-17 14:33N 54°31' E 018°33'0 0.0
2014-Aug-17 13:33N 54°31' E 018°33'0 0.0
2014-Aug-17 12:33N 54°31' E 018°33'0 0.0
2014-Aug-17 11:33N 54°31' E 018°33'0 0.0
2014-Aug-17 10:33N 54°31' E 018°33'0 0.0
2014-Aug-17 09:33N 54°31' E 018°33'0 0.0
2014-Aug-17 08:33N 54°31' E 018°33'0 0.0
2014-Aug-17 07:33N 54°31' E 018°33'0 0.0
2014-Aug-17 06:33N 54°31' E 018°33'0 0.0
2014-Aug-17 05:33N 54°31' E 018°33'0 0.0
2014-Aug-17 04:33N 54°31' E 018°33'0 0.0
2014-Aug-17 03:33N 54°31' E 018°33'0 0.0
2014-Aug-17 02:33N 54°31' E 018°33'0 0.0
2014-Aug-17 01:33N 54°31' E 018°33'0 0.0
2014-Aug-17 00:33N 54°31' E 018°33'0 0.0
2014-Aug-16 23:33N 54°31' E 018°33'0 0.0
2014-Aug-16 22:33N 54°31' E 018°33'0 0.0
2014-Aug-16 21:33N 54°31' E 018°33'0 0.0
2014-Aug-16 20:33N 54°31' E 018°33'0 0.0
2014-Aug-16 19:33N 54°31' E 018°33'0 0.0
2014-Aug-16 18:33N 54°31' E 018°33'0 0.0
2014-Aug-16 17:33N 54°31' E 018°33'0 0.0
2014-Aug-16 16:30N 54°31' E 018°33'0 0.0
2014-Aug-16 15:33N 54°31' E 018°33'0 0.0
2014-Aug-16 14:33N 54°31' E 018°33'0 0.0
2014-Aug-16 13:33N 54°31' E 018°33'0 0.0
2014-Aug-16 12:33N 54°31' E 018°33'0 0.0
2014-Aug-16 11:33N 54°31' E 018°33'0 0.0
2014-Aug-16 10:33N 54°31' E 018°33'0 0.0
2014-Aug-16 09:33N 54°31' E 018°33'0 0.0
2014-Aug-16 08:30N 54°31' E 018°33'0 0.0
2014-Aug-16 07:33N 54°31' E 018°33'0 0.0
2014-Aug-16 06:33N 54°31' E 018°33'0 0.0
2014-Aug-16 05:33N 54°31' E 018°33'0 0.0
2014-Aug-16 04:33N 54°31' E 018°33'0 0.0
2014-Aug-16 03:33N 54°31' E 018°33'0 0.0
2014-Aug-16 02:33N 54°31' E 018°33'0 0.0
2014-Aug-16 01:33N 54°31' E 018°33'0 0.0
2014-Aug-16 00:33N 54°31' E 018°33'0 0.0
2014-Aug-15 23:33N 54°31' E 018°33'0 0.0
2014-Aug-15 22:33N 54°31' E 018°33'0 0.0
2014-Aug-15 21:33N 54°31' E 018°33'0 0.0
2014-Aug-15 20:33N 54°31' E 018°33'0 0.0
2014-Aug-15 19:33N 54°31' E 018°33'0 0.0
2014-Aug-15 18:33N 54°31' E 018°33'0 0.0
2014-Aug-15 17:33N 54°31' E 018°33'0 0.0
2014-Aug-15 16:33N 54°31' E 018°33'0 0.0
2014-Aug-15 15:33N 54°31' E 018°33'0 0.0
2014-Aug-15 14:33N 54°31' E 018°33'0 0.0
2014-Aug-15 13:33N 54°31' E 018°33'0 0.0
2014-Aug-15 12:33N 54°31' E 018°33'0 0.0
2014-Aug-15 11:33N 54°31' E 018°33'0 0.0
2014-Aug-15 10:33N 54°31' E 018°33'0 0.0
2014-Aug-15 09:33N 54°31' E 018°33'0 0.0
2014-Aug-15 08:33N 54°31' E 018°33'0 0.0
2014-Aug-15 07:33N 54°31' E 018°33'0 0.0
2014-Aug-15 06:33N 54°31' E 018°33'0 0.0
2014-Aug-15 05:33N 54°31' E 018°33'0 0.0
2014-Aug-15 04:33N 54°31' E 018°33'0 0.0
2014-Aug-15 03:33N 54°31' E 018°33'0 0.0
2014-Aug-15 02:30N 54°31' E 018°33'0 0.0
2014-Aug-15 01:33N 54°31' E 018°33'0 0.0
2014-Aug-15 00:33N 54°31' E 018°33'0 0.0
2014-Aug-14 23:33N 54°31' E 018°33'0 0.0
2014-Aug-14 22:33N 54°31' E 018°33'0 0.0
2014-Aug-14 21:33N 54°31' E 018°33'0 0.0
2014-Aug-14 20:33N 54°31' E 018°33'0 0.0
2014-Aug-14 19:33N 54°31' E 018°33'0 0.0
2014-Aug-14 18:33N 54°31' E 018°33'0 0.0
2014-Aug-14 17:33N 54°31' E 018°33'0 0.0
2014-Aug-14 16:33N 54°31' E 018°33'0 0.0
2014-Aug-14 15:33N 54°31' E 018°33'0 0.0
2014-Aug-14 14:33N 54°31' E 018°33'0 0.0
2014-Aug-14 13:33N 54°31' E 018°33'0 0.0
2014-Aug-14 12:33N 54°31' E 018°33'0 0.0
2014-Aug-14 11:33N 54°31' E 018°33'1 1.2
2014-Aug-14 10:33N 54°31' E 018°35'5 5.4
2014-Aug-14 09:33N 54°32' E 018°44'6 6.1
2014-Aug-14 08:33N 54°36' E 018°53'9 9.4
2014-Aug-14 07:33N 54°45' E 018°58'1110.5
2014-Aug-14 06:33N 54°56' E 018°57'9 9.1
2014-Aug-14 05:33N 55°05' E 018°57'9 8.8
2014-Aug-14 04:33N 55°13' E 018°57'7 7.4
2014-Aug-14 03:33N 55°21' E 018°57'1 0.9
2014-Aug-14 02:04N 55°19' E 018°57'1 1.0
2014-Aug-14 01:22N 55°19' E 018°57'1 0.9
2014-Aug-14 00:33N 55°18' E 018°58'1 0.8
2014-Aug-13 23:33N 55°18' E 018°59'1 0.7
2014-Aug-13 22:33N 55°17' E 019°00'0 0.2
2014-Aug-13 20:33N 55°17' E 019°01'0 0.3
2014-Aug-13 19:25N 55°18' E 019°00'1 0.7
2014-Aug-13 18:12N 55°17' E 018°59'1 1.0
2014-Aug-13 17:33N 55°17' E 018°58'1 1.2
2014-Aug-13 16:33N 55°16' E 018°57'1 1.4
2014-Aug-13 15:33N 55°15' E 018°55'1 1.4
2014-Aug-13 14:33N 55°13' E 018°55'2 1.5
2014-Aug-13 13:33N 55°12' E 018°55'2 1.6
2014-Aug-13 12:32N 55°10' E 018°54'2 1.7
2014-Aug-13 11:33N 55°09' E 018°55'1 1.4
2014-Aug-13 10:32N 55°07' E 018°54'1 1.1
2014-Aug-13 09:33N 55°06' E 018°54'1 0.8
2014-Aug-13 08:33N 55°06' E 018°53'2 2.2
2014-Aug-13 07:33N 55°05' E 018°49'9 9.4
2014-Aug-13 06:33N 55°05' E 018°33'9 9.4
2014-Aug-13 05:33N 55°06' E 018°17'10 9.6
2014-Aug-13 04:33N 55°06' E 017°60'10 9.9
2014-Aug-13 03:33N 55°05' E 017°42'1010.0
2014-Aug-13 02:32N 55°05' E 017°24'63 9.8
2014-Aug-12 20:09N 54°49' E 015°39'44 9.5
2014-Aug-12 15:34N 54°34' E 014°27'10 9.6
2014-Aug-12 14:33N 54°34' E 014°11'6 5.7
2014-Aug-12 13:33N 54°32' E 014°01'5 5.2
2014-Aug-12 12:34N 54°31' E 013°53'6 6.4
2014-Aug-12 11:33N 54°30' E 013°42'1 0.8
2014-Aug-12 10:33N 54°30' E 013°40'0 0.0
2014-Aug-12 09:33N 54°30' E 013°40'0 0.0
2014-Aug-12 08:33N 54°30' E 013°40'0 0.0
2014-Aug-12 07:33N 54°30' E 013°40'0 0.0
2014-Aug-12 06:33N 54°30' E 013°40'0 0.0
2014-Aug-12 05:33N 54°30' E 013°40'0 0.0
2014-Aug-12 04:33N 54°30' E 013°40'0 0.0
2014-Aug-12 03:33N 54°30' E 013°40'0 0.0
2014-Aug-12 02:33N 54°30' E 013°40'0 0.0
2014-Aug-12 01:33N 54°30' E 013°40'0 0.0
2014-Aug-12 00:30N 54°30' E 013°40'0 0.0
2014-Aug-11 23:30N 54°30' E 013°40'0 0.0
2014-Aug-11 22:30N 54°30' E 013°40'0 0.0
2014-Aug-11 21:33N 54°30' E 013°40'0 0.0
2014-Aug-11 20:30N 54°30' E 013°40'0 0.0
2014-Aug-11 19:33N 54°30' E 013°40'0 0.0
2014-Aug-11 18:33N 54°30' E 013°40'0 0.0
2014-Aug-11 17:27N 54°30' E 013°40'0 0.0
2014-Aug-11 16:30N 54°30' E 013°40'  
Track history (hours):
 
Tides and Currents Weather Stations Pressure Air Temp Water Temp Dewpoint Dewpoint Depression Visibility Wind Speed Wind Dir Waves Ship Positions

Sedov (Russia)

Last reported at 2014-Aug-21 15:33 UTC. Time now 2014-Aug-21 16:06 UTC.
Position N 54°11' E 012°06'.

Length 118 m; draft 6.5 m.

Type: Sailing vessel. MMSI: 273510000.

Date/timePositionNaut miles runAvg speedWind from/ knotsBaromVisibWave heightAir tempDewpointWater temp
2014-Aug-21 15:33N 54°11' E 012°06'0 0.0
2014-Aug-21 14:30N 54°11' E 012°06'0 0.0
2014-Aug-21 13:33N 54°11' E 012°06'0 0.0
2014-Aug-21 12:33N 54°11' E 012°06'0 0.0
2014-Aug-21 11:15N 54°11' E 012°06'0 0.0
2014-Aug-21 10:33N 54°11' E 012°06'0 0.0
2014-Aug-21 09:33N 54°11' E 012°06'0 0.0
2014-Aug-21 08:33N 54°11' E 012°06'5 4.8
2014-Aug-21 07:33N 54°15' E 012°04'7 7.2
2014-Aug-21 06:33N 54°21' E 012°12'6 6.0
2014-Aug-21 05:33N 54°25' E 012°18'6 6.2
2014-Aug-21 04:33N 54°30' E 012°24'6 6.2
2014-Aug-21 03:33N 54°36' E 012°31'6 6.3
2014-Aug-21 02:33N 54°39' E 012°40'6 6.3
2014-Aug-21 01:33N 54°41' E 012°50'7 6.6
2014-Aug-21 00:33N 54°42' E 013°01'6 6.3
2014-Aug-20 23:33N 54°43' E 013°12'6 6.0
2014-Aug-20 22:33N 54°44' E 013°22'6 5.8
2014-Aug-20 21:33N 54°44' E 013°32'6 6.2
2014-Aug-20 20:33N 54°43' E 013°43'6 6.5
2014-Aug-20 19:33N 54°42' E 013°54'7 6.8
2014-Aug-20 18:33N 54°40' E 014°05'6 6.1
2014-Aug-20 17:33N 54°39' E 014°16'6 5.4
2014-Aug-20 16:30N 54°38' E 014°26'123 3.3
2014-Aug-19 03:26N 55°06' E 017°54'3 3.2
2014-Aug-19 02:33N 55°06' E 017°59'3 2.9
2014-Aug-19 01:34N 55°06' E 018°04'4 4.2
2014-Aug-19 00:33N 55°06' E 018°11'5 4.8
2014-Aug-18 23:34N 55°06' E 018°20'6 5.6
2014-Aug-18 22:34N 55°03' E 018°28'7 6.9
2014-Aug-18 21:33N 54°59' E 018°39'8 8.2
2014-Aug-18 20:34N 54°55' E 018°51'8 8.4
2014-Aug-18 19:33N 54°48' E 018°57'10 9.6
2014-Aug-18 18:33N 54°38' E 018°56'10 9.5
2014-Aug-18 17:34N 54°32' E 018°44'5 5.1
2014-Aug-18 16:31N 54°29' E 018°36'1 1.2
2014-Aug-18 15:33N 54°30' E 018°35'2 1.9
2014-Aug-18 14:33N 54°31' E 018°33'0 0.0
2014-Aug-18 13:33N 54°31' E 018°33'0 0.0
2014-Aug-18 12:33N 54°31' E 018°33'0 0.0
2014-Aug-18 11:33N 54°31' E 018°33'0 0.0
2014-Aug-18 10:33N 54°31' E 018°33'0 0.0
2014-Aug-18 09:33N 54°31' E 018°33'0 0.0
2014-Aug-18 08:33N 54°31' E 018°33'0 0.0
2014-Aug-18 07:33N 54°31' E 018°33'0 0.0
2014-Aug-18 06:33N 54°31' E 018°33'0 0.0
2014-Aug-18 05:33N 54°31' E 018°33'0 0.0
2014-Aug-18 04:30N 54°31' E 018°33'0 0.0
2014-Aug-18 03:33N 54°31' E 018°33'0 0.0
2014-Aug-18 02:33N 54°31' E 018°33'0 0.0
2014-Aug-18 01:33N 54°31' E 018°33'0 0.0
2014-Aug-18 00:33N 54°31' E 018°33'0 0.0
2014-Aug-17 18:33N 54°31' E 018°33'0 0.0
2014-Aug-17 17:33N 54°31' E 018°33'0 0.0
2014-Aug-17 16:33N 54°31' E 018°33'0 0.0
2014-Aug-17 15:33N 54°31' E 018°33'0 0.0
2014-Aug-17 14:33N 54°31' E 018°33'0 0.0
2014-Aug-17 13:33N 54°31' E 018°33'0 0.0
2014-Aug-17 12:33N 54°31' E 018°33'0 0.0
2014-Aug-17 11:33N 54°31' E 018°33'0 0.0
2014-Aug-17 10:33N 54°31' E 018°33'0 0.0
2014-Aug-17 09:33N 54°31' E 018°33'0 0.0
2014-Aug-17 08:33N 54°31' E 018°33'0 0.0
2014-Aug-17 07:33N 54°31' E 018°33'0 0.0
2014-Aug-17 06:33N 54°31' E 018°33'0 0.0
2014-Aug-17 05:33N 54°31' E 018°33'0 0.0
2014-Aug-17 04:33N 54°31' E 018°33'0 0.0
2014-Aug-17 03:33N 54°31' E 018°33'0 0.0
2014-Aug-17 02:33N 54°31' E 018°33'0 0.0
2014-Aug-17 01:33N 54°31' E 018°33'0 0.0
2014-Aug-17 00:33N 54°31' E 018°33'0 0.0
2014-Aug-16 23:33N 54°31' E 018°33'0 0.0
2014-Aug-16 22:33N 54°31' E 018°33'0 0.0
2014-Aug-16 21:33N 54°31' E 018°33'0 0.0
2014-Aug-16 20:33N 54°31' E 018°33'0 0.0
2014-Aug-16 19:33N 54°31' E 018°33'0 0.0
2014-Aug-16 18:33N 54°31' E 018°33'0 0.0
2014-Aug-16 17:33N 54°31' E 018°33'0 0.0
2014-Aug-16 16:30N 54°31' E 018°33'0 0.0
2014-Aug-16 15:33N 54°31' E 018°33'0 0.0
2014-Aug-16 14:33N 54°31' E 018°33'0 0.0
2014-Aug-16 13:33N 54°31' E 018°33'0 0.0
2014-Aug-16 12:33N 54°31' E 018°33'0 0.0
2014-Aug-16 11:33N 54°31' E 018°33'0 0.0
2014-Aug-16 10:33N 54°31' E 018°33'0 0.0
2014-Aug-16 09:33N 54°31' E 018°33'0 0.0
2014-Aug-16 08:30N 54°31' E 018°33'0 0.0
2014-Aug-16 07:33N 54°31' E 018°33'0 0.0
2014-Aug-16 06:33N 54°31' E 018°33'0 0.0
2014-Aug-16 05:33N 54°31' E 018°33'0 0.0
2014-Aug-16 04:33N 54°31' E 018°33'0 0.0
2014-Aug-16 03:33N 54°31' E 018°33'0 0.0
2014-Aug-16 02:33N 54°31' E 018°33'0 0.0
2014-Aug-16 01:33N 54°31' E 018°33'0 0.0
2014-Aug-16 00:33N 54°31' E 018°33'0 0.0
2014-Aug-15 23:33N 54°31' E 018°33'0 0.0
2014-Aug-15 22:33N 54°31' E 018°33'0 0.0
2014-Aug-15 21:33N 54°31' E 018°33'0 0.0
2014-Aug-15 20:33N 54°31' E 018°33'0 0.0
2014-Aug-15 19:33N 54°31' E 018°33'0 0.0
2014-Aug-15 18:33N 54°31' E 018°33'0 0.0
2014-Aug-15 17:33N 54°31' E 018°33'0 0.0
2014-Aug-15 16:33N 54°31' E 018°33'0 0.0
2014-Aug-15 15:33N 54°31' E 018°33'0 0.0
2014-Aug-15 14:33N 54°31' E 018°33'0 0.0
2014-Aug-15 13:33N 54°31' E 018°33'0 0.0
2014-Aug-15 12:33N 54°31' E 018°33'0 0.0
2014-Aug-15 11:33N 54°31' E 018°33'0 0.0
2014-Aug-15 10:33N 54°31' E 018°33'0 0.0
2014-Aug-15 09:33N 54°31' E 018°33'0 0.0
2014-Aug-15 08:33N 54°31' E 018°33'0 0.0
2014-Aug-15 07:33N 54°31' E 018°33'0 0.0
2014-Aug-15 06:33N 54°31' E 018°33'0 0.0
2014-Aug-15 05:33N 54°31' E 018°33'0 0.0
2014-Aug-15 04:33N 54°31' E 018°33'0 0.0
2014-Aug-15 03:33N 54°31' E 018°33'0 0.0
2014-Aug-15 02:30N 54°31' E 018°33'0 0.0
2014-Aug-15 01:33N 54°31' E 018°33'0 0.0
2014-Aug-15 00:33N 54°31' E 018°33'0 0.0
2014-Aug-14 23:33N 54°31' E 018°33'0 0.0
2014-Aug-14 22:33N 54°31' E 018°33'0 0.0
2014-Aug-14 21:33N 54°31' E 018°33'0 0.0
2014-Aug-14 20:33N 54°31' E 018°33'0 0.0
2014-Aug-14 19:33N 54°31' E 018°33'0 0.0
2014-Aug-14 18:33N 54°31' E 018°33'0 0.0
2014-Aug-14 17:33N 54°31' E 018°33'0 0.0
2014-Aug-14 16:33N 54°31' E 018°33'0 0.0
2014-Aug-14 15:33N 54°31' E 018°33'0 0.0
2014-Aug-14 14:33N 54°31' E 018°33'0 0.0
2014-Aug-14 13:33N 54°31' E 018°33'0 0.0
2014-Aug-14 12:33N 54°31' E 018°33'0 0.0
2014-Aug-14 11:33N 54°31' E 018°33'1 1.2
2014-Aug-14 10:33N 54°31' E 018°35'5 5.4
2014-Aug-14 09:33N 54°32' E 018°44'6 6.1
2014-Aug-14 08:33N 54°36' E 018°53'9 9.4
2014-Aug-14 07:33N 54°45' E 018°58'1110.5
2014-Aug-14 06:33N 54°56' E 018°57'9 9.1
2014-Aug-14 05:33N 55°05' E 018°57'9 8.8
2014-Aug-14 04:33N 55°13' E 018°57'7 7.4
2014-Aug-14 03:33N 55°21' E 018°57'1 0.9
2014-Aug-14 02:04N 55°19' E 018°57'1 1.0
2014-Aug-14 01:22N 55°19' E 018°57'1 0.9
2014-Aug-14 00:33N 55°18' E 018°58'1 0.8
2014-Aug-13 23:33N 55°18' E 018°59'1 0.7
2014-Aug-13 22:33N 55°17' E 019°00'0 0.2
2014-Aug-13 20:33N 55°17' E 019°01'0 0.3
2014-Aug-13 19:25N 55°18' E 019°00'1 0.7
2014-Aug-13 18:12N 55°17' E 018°59'1 1.0
2014-Aug-13 17:33N 55°17' E 018°58'1 1.2
2014-Aug-13 16:33N 55°16' E 018°57'1 1.4
2014-Aug-13 15:33N 55°15' E 018°55'1 1.4
2014-Aug-13 14:33N 55°13' E 018°55'2 1.5
2014-Aug-13 13:33N 55°12' E 018°55'2 1.6
2014-Aug-13 12:32N 55°10' E 018°54'2 1.7
2014-Aug-13 11:33N 55°09' E 018°55'1 1.4
2014-Aug-13 10:32N 55°07' E 018°54'1 1.1
2014-Aug-13 09:33N 55°06' E 018°54'1 0.8
2014-Aug-13 08:33N 55°06' E 018°53'2 2.2
2014-Aug-13 07:33N 55°05' E 018°49'9 9.4
2014-Aug-13 06:33N 55°05' E 018°33'9 9.4
2014-Aug-13 05:33N 55°06' E 018°17'10 9.6
2014-Aug-13 04:33N 55°06' E 017°60'10 9.9
2014-Aug-13 03:33N 55°05' E 017°42'1010.0
2014-Aug-13 02:32N 55°05' E 017°24'63 9.8
2014-Aug-12 20:09N 54°49' E 015°39'44 9.5
2014-Aug-12 15:34N 54°34' E 014°27'10 9.6
2014-Aug-12 14:33N 54°34' E 014°11'6 5.7
2014-Aug-12 13:33N 54°32' E 014°01'5 5.2
2014-Aug-12 12:34N 54°31' E 013°53'6 6.4
2014-Aug-12 11:33N 54°30' E 013°42'1 0.8
2014-Aug-12 10:33N 54°30' E 013°40'0 0.0
2014-Aug-12 09:33N 54°30' E 013°40'0 0.0
2014-Aug-12 08:33N 54°30' E 013°40'0 0.0
2014-Aug-12 07:33N 54°30' E 013°40'0 0.0
2014-Aug-12 06:33N 54°30' E 013°40'0 0.0
2014-Aug-12 05:33N 54°30' E 013°40'0 0.0
2014-Aug-12 04:33N 54°30' E 013°40'0 0.0
2014-Aug-12 03:33N 54°30' E 013°40'0 0.0
2014-Aug-12 02:33N 54°30' E 013°40'0 0.0
2014-Aug-12 01:33N 54°30' E 013°40'0 0.0
2014-Aug-12 00:30N 54°30' E 013°40'0 0.0
2014-Aug-11 23:30N 54°30' E 013°40'0 0.0
2014-Aug-11 22:30N 54°30' E 013°40'0 0.0
2014-Aug-11 21:33N 54°30' E 013°40'0 0.0
2014-Aug-11 20:30N 54°30' E 013°40'0 0.0
2014-Aug-11 19:33N 54°30' E 013°40'0 0.0
2014-Aug-11 18:33N 54°30' E 013°40'0 0.0
2014-Aug-11 17:27N 54°30' E 013°40'0 0.0
2014-Aug-11 16:30N 54°30' E 013°40'  

Dump ship's entire track history